createdAt,value
2018-02-21T00:02:06.566Z,93.20
2018-02-21T00:04:35.406Z,97.00
2018-02-21T00:07:03.843Z,82.50
2018-02-21T00:09:32.027Z,79.07
2018-02-21T00:12:00.103Z,82.93
2018-02-21T00:14:28.274Z,77.80
2018-02-21T00:16:56.462Z,82.33
2018-02-21T00:19:24.626Z,86.17
2018-02-21T00:21:52.810Z,77.13
2018-02-21T00:24:20.893Z,76.37
2018-02-21T00:26:49.063Z,82.05
2018-02-21T00:29:17.130Z,87.25
2018-02-21T00:31:45.218Z,80.37
2018-02-21T00:34:13.282Z,86.00
2018-02-21T00:36:41.353Z,83.50
2018-02-21T00:39:09.461Z,74.57
2018-02-21T00:41:37.629Z,92.27
2018-02-21T00:44:05.687Z,75.40
2018-02-21T00:46:34.321Z,82.32
2018-02-21T00:49:04.274Z,83.12
2018-02-21T00:51:32.374Z,87.03
2018-02-21T00:54:00.526Z,65.60
2018-02-21T00:56:28.643Z,82.80
2018-02-21T00:58:56.813Z,83.37
2018-02-21T01:01:24.890Z,94.03
2018-02-21T01:03:52.958Z,79.17
2018-02-21T01:06:21.024Z,80.40
2018-02-21T01:08:49.105Z,76.93
2018-02-21T01:11:17.182Z,91.30
2018-02-21T01:13:45.281Z,93.10
2018-02-21T01:16:13.355Z,72.30
2018-02-21T01:18:41.510Z,92.80
2018-02-21T01:21:09.706Z,79.64
2018-02-21T01:23:37.794Z,85.00
2018-02-21T01:26:05.870Z,77.55
2018-02-21T01:28:35.550Z,83.45
2018-02-21T01:31:04.779Z,87.23
2018-02-21T01:33:32.845Z,93.27
2018-02-21T01:36:00.930Z,88.20
2018-02-21T01:38:29.518Z,91.90
2018-02-21T01:40:57.698Z,88.93
2018-02-21T01:43:26.587Z,91.83
2018-02-21T01:45:54.659Z,95.27
2018-02-21T01:48:22.850Z,100.38
2018-02-21T01:50:52.735Z,91.20
2018-02-21T01:53:20.814Z,86.32
2018-02-21T01:55:48.882Z,102.33
2018-02-21T01:58:17.661Z,83.87
2018-02-21T02:00:45.741Z,97.47
2018-02-21T02:03:13.866Z,101.80
2018-02-21T02:05:41.953Z,90.23
2018-02-21T02:08:10.038Z,84.70
2018-02-21T02:10:38.203Z,82.17
2018-02-21T02:13:06.286Z,94.65
2018-02-21T02:15:35.484Z,110.37
2018-02-21T02:18:03.650Z,106.07
2018-02-21T02:20:31.722Z,106.23
2018-02-21T02:22:59.813Z,83.25
2018-02-21T02:25:27.981Z,94.30
2018-02-21T02:27:56.162Z,91.07
2018-02-21T02:30:24.226Z,94.27
2018-02-21T02:32:53.210Z,98.63
2018-02-21T02:35:21.273Z,98.78
2018-02-21T02:37:49.350Z,116.50
2018-02-21T02:40:17.474Z,113.90
2018-02-21T02:42:46.626Z,90.87
2018-02-21T02:45:14.739Z,97.53
2018-02-21T02:47:42.825Z,99.87
2018-02-21T02:50:10.892Z,94.93
2018-02-21T02:52:39.070Z,107.70
2018-02-21T02:55:07.248Z,107.03
2018-02-21T02:57:36.639Z,109.37
2018-02-21T03:00:06.604Z,95.77
2018-02-21T03:02:35.884Z,104.17
2018-02-21T03:05:03.962Z,99.80
2018-02-21T03:07:32.038Z,106.50
2018-02-21T03:10:00.119Z,102.12
2018-02-21T03:12:28.290Z,101.83
2018-02-21T03:14:56.366Z,93.97
2018-02-21T03:17:24.549Z,105.03
2018-02-21T03:19:52.620Z,99.27
2018-02-21T03:22:20.798Z,95.18
2018-02-21T03:24:48.982Z,105.37
2018-02-21T03:27:17.053Z,96.53
2018-02-21T03:29:45.135Z,100.57
2018-02-21T03:32:13.205Z,102.03
2018-02-21T03:34:41.379Z,83.60
2018-02-21T03:37:09.461Z,109.90
2018-02-21T03:39:37.546Z,94.03
2018-02-21T03:42:07.116Z,82.12
2018-02-21T03:44:36.914Z,87.10
2018-02-21T03:47:04.984Z,102.27
2018-02-21T03:49:34.393Z,93.00
2018-02-21T03:52:02.526Z,101.25
2018-02-21T03:54:30.603Z,82.20
2018-02-21T03:56:58.848Z,89.55
2018-02-21T03:59:26.922Z,85.47
2018-02-21T04:01:55.034Z,93.23
2018-02-21T04:04:23.113Z,108.33
2018-02-21T04:06:52.327Z,92.50
2018-02-21T04:09:20.391Z,93.20
2018-02-21T04:11:48.565Z,92.63
2018-02-21T04:14:17.586Z,86.10
2018-02-21T04:16:45.645Z,96.85
2018-02-21T04:19:13.735Z,102.67
2018-02-21T04:21:41.890Z,87.40
2018-02-21T04:24:10.072Z,103.55
2018-02-21T04:26:38.354Z,79.17
2018-02-21T04:29:06.869Z,82.03
2018-02-21T04:31:37.593Z,83.57
2018-02-21T04:34:06.796Z,90.67
2018-02-21T04:36:34.957Z,91.50
2018-02-21T04:39:03.781Z,107.82
2018-02-21T04:41:32.626Z,88.20
2018-02-21T04:44:00.690Z,87.73
2018-02-21T04:46:28.750Z,81.57
2018-02-21T04:48:56.831Z,76.57
2018-02-21T04:51:24.889Z,76.18
2018-02-21T04:53:53.738Z,84.75
2018-02-21T04:59:35.521Z,76.40
2018-02-21T05:02:04.394Z,83.83
2018-02-21T05:04:32.513Z,67.53
2018-02-21T05:07:00.572Z,68.30
2018-02-21T05:09:28.684Z,78.87
2018-02-21T05:11:58.280Z,79.20
2018-02-21T05:14:26.360Z,72.70
2018-02-21T05:16:54.422Z,76.53
2018-02-21T05:19:22.522Z,78.07
2018-02-21T05:21:50.590Z,61.47
2018-02-21T05:24:18.666Z,73.70
2018-02-21T05:26:46.758Z,62.95
2018-02-21T05:29:15.626Z,64.90
2018-02-21T05:31:43.698Z,80.23
2018-02-21T05:34:11.795Z,75.53
2018-02-21T05:36:39.858Z,76.60
2018-02-21T05:39:07.926Z,88.35
2018-02-21T05:41:35.986Z,70.70
2018-02-21T05:44:04.078Z,77.85
2018-02-21T05:46:32.166Z,79.83
2018-02-21T05:49:00.240Z,91.12
2018-02-21T05:51:28.314Z,80.73
2018-02-21T05:53:56.382Z,92.93
2018-02-21T05:56:24.449Z,67.60
2018-02-21T05:58:52.530Z,78.17
2018-02-21T06:01:20.589Z,78.65
2018-02-21T06:03:48.662Z,87.80
2018-02-21T06:06:16.735Z,82.12
2018-02-21T06:08:44.810Z,83.60
2018-02-21T06:11:12.993Z,96.80
2018-02-21T06:13:41.067Z,96.67
2018-02-21T06:16:09.130Z,94.22
2018-02-21T06:18:38.678Z,97.88
2018-02-21T06:21:07.869Z,90.43
2018-02-21T06:23:35.942Z,89.22
2018-02-21T06:26:04.051Z,93.62
2018-02-21T06:28:32.119Z,91.03
2018-02-21T06:31:00.196Z,90.78
2018-02-21T06:33:28.774Z,97.20
2018-02-21T06:35:56.851Z,101.73
2018-02-21T06:38:24.910Z,96.25
2018-02-21T06:40:52.998Z,100.03
2018-02-21T06:43:21.077Z,83.15
2018-02-21T06:45:49.158Z,98.43
2018-02-21T06:48:17.262Z,85.85
2018-02-21T06:50:45.688Z,99.27
2018-02-21T06:53:13.742Z,95.23
2018-02-21T06:55:42.598Z,95.53
2018-02-21T06:58:10.692Z,84.03
2018-02-21T07:00:38.746Z,100.27
2018-02-21T07:03:06.821Z,88.53
2018-02-21T07:05:34.906Z,96.63
2018-02-21T07:08:02.970Z,85.90
2018-02-21T07:10:31.072Z,90.13
2018-02-21T07:12:59.230Z,80.23
2018-02-21T07:15:27.393Z,88.67
2018-02-21T07:17:55.486Z,94.47
2018-02-21T07:20:23.567Z,96.33
2018-02-21T07:22:53.243Z,93.13
2018-02-21T07:25:21.317Z,89.45
2018-02-21T07:27:49.434Z,90.57
2018-02-21T07:30:17.609Z,85.55
2018-02-21T07:32:45.679Z,80.73
2018-02-21T07:35:13.890Z,85.17
2018-02-21T07:37:41.951Z,96.90
2018-02-21T07:40:10.027Z,87.15
2018-02-21T07:42:40.051Z,92.25
2018-02-21T07:45:09.568Z,97.16
2018-02-21T07:47:38.753Z,91.97
2018-02-21T07:50:06.919Z,99.07
2018-02-21T07:52:34.978Z,93.50
2018-02-21T07:55:03.060Z,98.90
2018-02-21T07:57:31.117Z,92.63
2018-02-21T07:59:59.195Z,97.90
2018-02-21T08:02:27.277Z,101.87
2018-02-21T08:04:55.334Z,97.00
2018-02-21T08:07:23.397Z,99.40
2018-02-21T08:09:52.654Z,85.93
2018-02-21T08:12:20.710Z,93.00
2018-02-21T08:14:48.782Z,90.63
2018-02-21T08:17:16.851Z,99.70
2018-02-21T08:19:44.934Z,86.50
2018-02-21T08:22:13.038Z,92.23
2018-02-21T08:24:41.110Z,93.45
2018-02-21T08:27:09.194Z,97.75
2018-02-21T08:29:37.270Z,108.93
2018-02-21T08:32:05.358Z,96.37
2018-02-21T08:34:33.435Z,98.00
2018-02-21T08:37:01.599Z,89.10
2018-02-21T08:39:29.682Z,83.43
2018-02-21T08:41:57.747Z,96.68
2018-02-21T08:44:25.825Z,91.07
2018-02-21T08:46:53.901Z,81.80
2018-02-21T08:49:21.961Z,87.63
2018-02-21T08:51:50.027Z,84.43
2018-02-21T08:54:18.100Z,190.40
2018-02-21T08:56:46.169Z,86.33
2018-02-21T08:59:14.221Z,99.37
2018-02-21T09:01:43.066Z,89.87
2018-02-21T09:04:11.150Z,84.47
2018-02-21T09:06:40.341Z,87.90
2018-02-21T09:09:09.534Z,88.23
2018-02-21T09:11:37.635Z,83.55
2018-02-21T09:14:05.693Z,95.30
2018-02-21T09:16:33.858Z,86.13
2018-02-21T09:19:01.855Z,93.15
2018-02-21T09:21:29.931Z,96.90
2018-02-21T09:23:57.994Z,93.57
2018-02-21T09:26:26.066Z,84.03
2018-02-21T09:28:54.128Z,90.60
2018-02-21T09:31:22.190Z,99.90
2018-02-21T09:33:51.045Z,91.57
2018-02-21T09:36:19.121Z,110.57
2018-02-21T09:38:47.183Z,92.67
2018-02-21T09:41:15.853Z,84.43
2018-02-21T09:43:43.958Z,89.28
2018-02-21T09:46:12.025Z,91.50
2018-02-21T09:48:40.107Z,101.43
2018-02-21T09:51:08.294Z,107.07
2018-02-21T09:53:36.370Z,86.83
2018-02-21T09:56:04.438Z,91.13
2018-02-21T09:58:32.513Z,97.60
2018-02-21T10:01:00.636Z,83.03
2018-02-21T10:03:28.638Z,83.53
2018-02-21T10:05:56.704Z,106.75
2018-02-21T10:08:24.826Z,96.95
2018-02-21T10:10:52.910Z,95.03
2018-02-21T10:13:20.992Z,89.10
2018-02-21T10:15:49.158Z,97.97
2018-02-21T10:18:17.229Z,110.60
2018-02-21T10:20:45.310Z,104.10
2018-02-21T10:23:13.491Z,90.43
2018-02-21T10:25:41.646Z,90.27
2018-02-21T10:28:10.356Z,92.16
2018-02-21T10:30:38.601Z,80.10
2018-02-21T10:33:06.653Z,80.77
2018-02-21T10:35:35.474Z,85.43
2018-02-21T10:38:03.545Z,97.07
2018-02-21T10:40:31.994Z,96.50
2018-02-21T10:43:00.138Z,78.82
2018-02-21T10:45:28.209Z,85.23
2018-02-21T10:47:56.282Z,88.57
2018-02-21T10:50:24.715Z,87.33
2018-02-21T10:52:53.565Z,95.40
2018-02-21T10:55:22.370Z,82.97
2018-02-21T10:57:50.557Z,94.13
2018-02-21T11:00:24.138Z,73.75
2018-02-21T11:02:52.345Z,91.17
2018-02-21T11:05:20.404Z,85.68
2018-02-21T11:07:48.582Z,84.50
2018-02-21T11:10:16.645Z,94.13
2018-02-21T11:12:44.715Z,88.20
2018-02-21T11:15:13.609Z,87.30
2018-02-21T11:17:41.686Z,77.13
2018-02-21T11:20:11.642Z,79.82
2018-02-21T11:22:40.929Z,86.57
2018-02-21T11:25:09.211Z,88.43
2018-02-21T11:27:37.283Z,77.93
2018-02-21T11:30:05.335Z,87.80
2018-02-21T11:32:33.442Z,96.20
2018-02-21T11:35:01.500Z,75.97
2018-02-21T11:37:29.554Z,79.43
2018-02-21T11:39:57.669Z,92.00
2018-02-21T11:42:25.726Z,83.13
2018-02-21T11:44:53.822Z,75.07
2018-02-21T11:47:21.897Z,81.70
2018-02-21T11:49:49.962Z,81.03
2018-02-21T11:52:18.014Z,76.07
2018-02-21T11:54:46.075Z,80.93
2018-02-21T11:57:14.898Z,79.53
2018-02-21T11:59:42.994Z,91.93
2018-02-21T12:02:11.285Z,80.82
2018-02-21T12:04:39.368Z,80.13
2018-02-21T12:07:07.411Z,77.03
2018-02-21T12:09:35.490Z,81.70
2018-02-21T12:12:03.571Z,77.20
2018-02-21T12:14:31.634Z,65.87
2018-02-21T12:16:59.696Z,82.03
2018-02-21T12:19:27.810Z,81.73
2018-02-21T12:21:55.892Z,83.00
2018-02-21T12:24:23.950Z,81.60
2018-02-21T12:26:52.150Z,82.43
2018-02-21T12:29:20.242Z,101.20
2018-02-21T12:31:49.087Z,79.77
2018-02-21T12:34:17.170Z,68.30
2018-02-21T12:36:45.235Z,62.00
2018-02-21T12:39:18.850Z,72.13
2018-02-21T12:41:46.914Z,66.20
2018-02-21T12:44:14.973Z,60.00
2018-02-21T12:46:43.095Z,63.53
2018-02-21T12:49:12.577Z,61.20
2018-02-21T12:51:41.757Z,62.93
2018-02-21T12:54:11.706Z,66.57
2018-02-21T12:56:39.800Z,68.10
2018-02-21T12:59:07.862Z,71.22
2018-02-21T13:01:35.957Z,68.30
2018-02-21T13:04:04.030Z,65.25
2018-02-21T13:06:32.098Z,79.33
2018-02-21T13:09:00.155Z,83.05
2018-02-21T13:11:28.230Z,76.97
2018-02-21T13:13:56.301Z,72.13
2018-02-21T13:16:24.789Z,71.40
2018-02-21T13:18:52.899Z,72.57
2018-02-21T13:21:21.033Z,75.37
2018-02-21T13:23:49.050Z,69.27
2018-02-21T13:26:17.114Z,74.25
2018-02-21T13:28:45.928Z,83.62
2018-02-21T13:31:14.249Z,82.20
2018-02-21T13:33:42.395Z,83.33
2018-02-21T13:36:10.470Z,90.07
2018-02-21T13:38:38.649Z,90.43
2018-02-21T13:41:06.702Z,84.47
2018-02-21T13:43:34.790Z,84.73
2018-02-21T13:46:02.858Z,92.03
2018-02-21T13:48:30.934Z,85.10
2018-02-21T13:50:59.014Z,95.85
2018-02-21T13:53:27.092Z,81.73
2018-02-21T13:55:55.166Z,77.37
2018-02-21T13:58:23.238Z,87.53
2018-02-21T14:00:52.167Z,102.93
2018-02-21T14:03:20.243Z,96.13
2018-02-21T14:05:48.313Z,92.60
2018-02-21T14:08:16.382Z,103.93
2018-02-21T14:10:44.563Z,88.80
2018-02-21T14:13:13.938Z,73.60
2018-02-21T14:15:42.867Z,94.95
2018-02-21T14:18:10.925Z,85.23
2018-02-21T14:20:39.016Z,89.50
2018-02-21T14:23:07.083Z,90.22
2018-02-21T14:25:35.277Z,86.23
2018-02-21T14:28:03.336Z,97.77
2018-02-21T14:30:31.410Z,93.65
2018-02-21T14:32:59.485Z,100.27
2018-02-21T14:35:27.554Z,96.32
2018-02-21T14:37:55.639Z,88.53
2018-02-21T14:40:23.712Z,92.57
2018-02-21T14:42:53.037Z,91.85
2018-02-21T14:45:21.114Z,88.00
2018-02-21T14:47:49.238Z,82.83
2018-02-21T14:50:17.317Z,100.17
2018-02-21T14:52:45.378Z,100.33
2018-02-21T14:55:13.506Z,98.90
2018-02-21T14:57:41.577Z,97.87
2018-02-21T15:00:09.658Z,91.77
2018-02-21T15:02:37.727Z,94.67
2018-02-21T15:05:05.814Z,93.97
2018-02-21T15:07:33.897Z,100.10
2018-02-21T15:10:02.066Z,103.40
2018-02-21T15:12:30.177Z,105.27
2018-02-21T15:14:58.995Z,91.93
2018-02-21T15:17:27.075Z,86.47
2018-02-21T15:19:55.142Z,90.40
2018-02-21T15:22:23.974Z,91.77
2018-02-21T15:24:53.035Z,108.10
2018-02-21T15:27:21.104Z,113.23
2018-02-21T15:29:49.171Z,101.57
2018-02-21T15:32:18.640Z,98.97
2018-02-21T15:34:46.719Z,108.18
2018-02-21T15:37:14.782Z,94.93
2018-02-21T15:39:44.571Z,96.37
2018-02-21T15:42:13.775Z,97.43
2018-02-21T15:44:41.850Z,112.18
2018-02-21T15:47:09.966Z,100.90
2018-02-21T15:49:37.977Z,91.70
2018-02-21T15:52:06.826Z,105.37
2018-02-21T15:54:34.918Z,102.90
2018-02-21T15:57:02.998Z,105.47
2018-02-21T15:59:32.386Z,105.87
2018-02-21T16:02:00.826Z,101.73
2018-02-21T16:04:28.882Z,99.43
2018-02-21T16:06:56.946Z,90.03
2018-02-21T16:09:25.010Z,95.12
2018-02-21T16:11:53.186Z,115.20
2018-02-21T16:14:21.251Z,94.07
2018-02-21T16:16:49.345Z,100.23
2018-02-21T16:19:17.515Z,97.27
2018-02-21T16:21:45.894Z,112.57
2018-02-21T16:24:15.071Z,98.20
2018-02-21T16:26:44.268Z,99.17
2018-02-21T16:29:12.369Z,98.23
2018-02-21T16:31:40.457Z,112.90
2018-02-21T16:34:08.531Z,94.25
2018-02-21T16:36:36.600Z,96.57
2018-02-21T16:39:04.678Z,109.82
2018-02-21T16:41:32.761Z,96.43
2018-02-21T16:44:00.821Z,103.22
2018-02-21T16:46:28.911Z,90.50
2018-02-21T16:48:56.970Z,97.58
2018-02-21T16:51:25.026Z,103.97
2018-02-21T16:53:58.598Z,111.27
2018-02-21T16:56:27.442Z,118.77
2018-02-21T16:58:55.531Z,108.23
2018-02-21T17:01:23.718Z,105.60
2018-02-21T17:03:52.311Z,109.60
2018-02-21T17:06:20.382Z,118.18
2018-02-21T17:08:48.442Z,97.80
2018-02-21T17:11:16.630Z,106.37
2018-02-21T17:13:45.599Z,90.55
2018-02-21T17:16:14.791Z,95.70
2018-02-21T17:18:42.866Z,101.15
2018-02-21T17:21:10.936Z,90.07
2018-02-21T17:23:39.002Z,101.90
2018-02-21T17:26:07.840Z,103.05
2018-02-21T17:28:35.909Z,91.93
2018-02-21T17:31:03.970Z,95.65
2018-02-21T17:33:32.077Z,104.37
2018-02-21T17:36:00.158Z,107.80
2018-02-21T17:38:28.226Z,104.00
2018-02-21T17:41:01.738Z,104.27
2018-02-21T17:43:29.916Z,106.82
2018-02-21T17:45:57.984Z,105.43
2018-02-21T17:48:26.044Z,106.57
2018-02-21T17:50:54.108Z,104.37
2018-02-21T17:53:22.186Z,98.35
2018-02-21T17:55:50.290Z,103.15
2018-02-21T17:58:18.366Z,103.73
2018-02-21T18:00:46.453Z,113.07
2018-02-21T18:03:16.251Z,102.87
2018-02-21T18:05:45.422Z,103.37
2018-02-21T18:08:13.549Z,118.43
2018-02-21T18:10:41.730Z,100.80
2018-02-21T18:13:09.953Z,118.55
2018-02-21T18:15:38.798Z,105.47
2018-02-21T18:18:06.996Z,130.37
2018-02-21T18:20:35.862Z,99.83
2018-02-21T18:23:04.089Z,108.12
2018-02-21T18:25:32.137Z,109.77
2018-02-21T18:28:00.230Z,100.10
2018-02-21T18:30:29.227Z,108.35
2018-02-21T18:32:58.089Z,119.40
2018-02-21T18:35:26.270Z,115.77
2018-02-21T18:37:54.349Z,133.33
2018-02-21T18:40:22.437Z,107.72
2018-02-21T18:42:50.504Z,97.68
2018-02-21T18:45:18.649Z,98.37
2018-02-21T18:47:46.806Z,107.77
2018-02-21T18:50:17.694Z,111.37
2018-02-21T18:52:46.778Z,103.07
2018-02-21T18:55:16.787Z,108.33
2018-02-21T18:57:46.852Z,100.83
2018-02-21T19:00:16.040Z,116.20
2018-02-21T19:02:44.114Z,102.68
2018-02-21T19:05:12.194Z,105.33
2018-02-21T19:07:40.351Z,105.87
2018-02-21T19:10:08.554Z,93.83
2018-02-21T19:12:36.621Z,116.97
2018-02-21T19:15:04.686Z,107.60
2018-02-21T19:17:32.929Z,106.57
2018-02-21T19:20:01.752Z,107.15
2018-02-21T19:22:29.849Z,107.47
2018-02-21T19:24:58.399Z,95.80
2018-02-21T19:27:26.609Z,97.27
2018-02-21T19:29:54.820Z,115.20
2018-02-21T19:32:22.973Z,136.13
2018-02-21T19:34:52.296Z,131.63
2018-02-21T19:37:21.176Z,117.03
2018-02-21T19:39:49.290Z,115.40
2018-02-21T19:42:18.130Z,104.43
2018-02-21T19:44:47.546Z,108.37
2018-02-21T19:47:16.833Z,110.10
2018-02-21T19:49:45.032Z,120.00
2018-02-21T19:52:13.152Z,116.50
2018-02-21T19:54:42.059Z,110.47
2018-02-21T19:57:10.233Z,121.55
2018-02-21T19:59:38.330Z,126.93
2018-02-21T20:02:06.434Z,117.47
2018-02-21T20:04:34.518Z,115.65
2018-02-21T20:07:02.605Z,116.50
2018-02-21T20:09:30.666Z,122.30
2018-02-21T20:11:58.946Z,109.80
2018-02-21T20:14:27.030Z,119.05
2018-02-21T20:16:55.129Z,129.68
2018-02-21T20:19:23.982Z,148.73
2018-02-21T20:21:53.160Z,122.72
2018-02-21T20:24:21.293Z,120.97
2018-02-21T20:26:49.374Z,148.47
2018-02-21T20:29:17.470Z,123.67
2018-02-21T20:31:47.433Z,131.47
2018-02-21T20:34:15.626Z,128.77
2018-02-21T20:36:43.761Z,122.40
2018-02-21T20:39:11.830Z,125.17
2018-02-21T20:41:39.894Z,123.10
2018-02-21T20:44:08.745Z,120.63
2018-02-21T20:46:36.926Z,128.60
2018-02-21T20:49:05.014Z,106.65
2018-02-21T20:51:33.118Z,121.17
2018-02-21T20:54:01.978Z,126.78
2018-02-21T20:56:30.059Z,126.00
2018-02-21T20:58:58.232Z,119.60
2018-02-21T21:01:26.407Z,130.82
2018-02-21T21:03:55.239Z,135.63
2018-02-21T21:06:24.073Z,133.60
2018-02-21T21:08:52.357Z,132.07
2018-02-21T21:11:20.444Z,138.73
2018-02-21T21:13:48.510Z,115.00
2018-02-21T21:16:16.590Z,133.23
2018-02-21T21:18:44.686Z,133.67
2018-02-21T21:21:12.782Z,117.07
2018-02-21T21:23:40.861Z,123.87
2018-02-21T21:26:08.983Z,116.50
2018-02-21T21:28:37.070Z,130.80
2018-02-21T21:31:05.172Z,114.85
2018-02-21T21:33:33.346Z,126.68
2018-02-21T21:36:01.508Z,131.57
2018-02-21T21:38:29.601Z,113.17
2018-02-21T21:40:57.738Z,131.40
2018-02-21T21:43:25.832Z,133.57
2018-02-21T21:45:54.030Z,125.07
2018-02-21T21:48:22.101Z,125.67
2018-02-21T21:50:50.289Z,140.23
2018-02-21T21:53:19.493Z,131.37
2018-02-21T21:55:48.699Z,121.47
2018-02-21T21:58:16.940Z,115.37
2018-02-21T22:00:46.040Z,110.93
2018-02-21T22:03:14.158Z,123.10
2018-02-21T22:05:42.238Z,111.63
2018-02-21T22:08:10.454Z,119.93
2018-02-21T22:10:39.410Z,115.00
2018-02-21T22:13:07.574Z,115.53
2018-02-21T22:15:35.760Z,117.20
2018-02-21T22:18:03.950Z,109.97
2018-02-21T22:20:32.194Z,123.23
2018-02-21T22:23:00.254Z,111.18
2018-02-21T22:25:29.093Z,94.20
2018-02-21T22:27:57.357Z,112.47
2018-02-21T22:30:25.421Z,119.95
2018-02-21T22:32:53.500Z,107.47
2018-02-21T22:35:21.677Z,125.60
2018-02-21T22:37:49.742Z,108.83
2018-02-21T22:40:18.998Z,127.90
2018-02-21T22:42:47.069Z,123.28
2018-02-21T22:45:15.151Z,104.07
2018-02-21T22:47:43.314Z,112.97
2018-02-21T22:50:11.482Z,102.60
2018-02-21T22:52:40.989Z,100.03
2018-02-21T22:55:09.071Z,107.72
2018-02-21T22:57:37.142Z,113.20
2018-02-21T23:00:05.225Z,91.78
2018-02-21T23:02:34.218Z,123.77
2018-02-21T23:05:02.406Z,122.80
2018-02-21T23:07:30.550Z,101.65
2018-02-21T23:09:58.626Z,100.77
2018-02-21T23:12:26.758Z,105.80
2018-02-21T23:14:54.849Z,106.37
2018-02-21T23:17:23.875Z,101.10
2018-02-21T23:19:51.970Z,100.80
2018-02-21T23:22:20.387Z,95.30
2018-02-21T23:24:48.565Z,98.73
2018-02-21T23:27:16.744Z,97.60
2018-02-21T23:29:44.936Z,98.57
2018-02-21T23:32:13.005Z,109.93
2018-02-21T23:34:41.089Z,101.90
2018-02-21T23:37:09.939Z,102.95
2018-02-21T23:39:38.052Z,95.27
2018-02-21T23:42:07.651Z,101.47
2018-02-21T23:44:35.730Z,93.90
2018-02-21T23:47:03.805Z,82.57
2018-02-21T23:49:32.074Z,88.87
2018-02-21T23:52:00.139Z,94.73
2018-02-21T23:54:28.223Z,91.97
2018-02-21T23:56:56.310Z,85.20
2018-02-21T23:59:24.468Z,114.00
